Terminal Aerodrome Forecast
Issued by NWS

Home | Current Version | Previous Version | Text Only | Print | Product List | Glossary On
Versions: 1 2 3 4 5 6 7 8 9 10 11 12 13
000
FTUS46 KSEW 221700
TAFPAE
TAF
KPAE 221720Z 2218/2318 VRB03KT P6SM BKN050 BKN080
     FM222100 36006KT P6SM BKN060 BKN100
     FM230600 VRB03KT P6SM BKN035 OVC070
     FM231700 19010KT P6SM -SHRA BKN010 OVC025=

USA.gov is the U.S. government's official web portal to all federal, state and local government web resources and services.